Latest Coastal Weather Observations for Proserpine

IDQ60701

Issued at 2:22 pm EST Wednesday 31 August 2016 (issued every 10 minutes, with the page automatically refreshed every 10 minutes)

About coastal observations | Map of coastal stations | Coastal observations for QLD | Marine services | Other Formats
Station Details ID: 033247 Name: PROSERPINE AIRPORT Lat: -20.49 Lon: 148.56 Height: 19.7 m
Data from the previous 72 hours. | See also: Recent months at Proserpine
Date/Time
EST
Temp
°C
Wind Pressure Rain since
9am
mm
Weather Cloud Vis
km
Sea
Height
m
Swell
Dir  Spd
kts
Gust
kts
hPa Trend Height
m
Period
s
Dir
31/02:00pm 24.4 ESE 13 18 1020.0 - 0.0 - Cloudy 10 - - - -
31/01:30pm 25.1 ESE 13 18 1020.4 - 0.0 - Partly cloudy 10 - - - -
31/01:00pm 25.1 ESE 14 20 1020.7 - 0.0 - Partly cloudy 10 - - - -
31/12:30pm 25.2 ESE 15 22 1021.0 - 0.0 - Partly cloudy 10 - - - -
31/12:00pm 25.6 ESE 13 19 1021.4 - 0.0 - Partly cloudy 10 - - - -
31/11:30am 24.6 ESE 13 18 1021.9 - 0.0 - Partly cloudy 10 - - - -
31/11:00am 24.9 ESE 13 18 1022.4 - 0.0 - Partly cloudy 10 - - - -
31/10:30am 24.6 ESE 12 17 1022.5 - 0.0 - Partly cloudy 10 - - - -
31/10:00am 25.0 ESE 11 17 1022.7 - 0.0 - Partly cloudy 10 - - - -
31/09:30am 24.1 ESE 12 16 1022.9 - 0.0 - Partly cloudy 10 - - - -
31/09:00am 22.3 ESE 10 15 1023.1 - 2.6 - Cloudy 10 - - - -
31/08:51am 22.1 SE 9 13 1023.1 - 2.6 - Partly cloudy 10 - - - -
31/08:37am 21.9 SE 6 10 1023.3 - 2.6 - Partly cloudy 10 - - - -
31/08:30am 21.7 SE 6 8 1023.2 - 2.6 - Partly cloudy 10 - - - -
31/08:00am 21.1 SSE 5 8 1022.9 - 2.6 - Cloudy 10 - - - -
31/07:30am 19.3 SSW 2 4 1022.8 - 2.6 - Partly cloudy 10 - - - -
31/07:00am 18.8 SW 5 6 1022.5 - 2.6 - Partly cloudy 10 - - - -
31/06:30am 18.7 SSE 6 8 1022.4 - 2.6 - Partly cloudy 10 - - - -
31/06:00am 18.1 S 3 4 1022.2 - 2.6 - Mostly cloudy 10 - - - -
31/05:30am 19.0 SSE 5 7 1021.9 - 2.6 - Partly cloudy 10 - - - -
31/05:00am 18.6 SSE 5 6 1021.5 - 2.6 - Cloudy 10 - - - -
31/04:30am 18.8 E 3 4 1021.3 - 2.6 - Partly cloudy 10 - - - -
31/04:00am 19.0 S 4 5 1021.3 - 2.6 - Partly cloudy 10 - - - -
31/03:30am 19.0 E 3 5 1021.5 - 2.6 - Partly cloudy 10 - - - -
31/03:00am 19.0 S 5 7 1021.5 - 2.6 - Cloudy 10 - - - -
31/02:30am 18.7 S 6 7 1021.9 - 2.6 - Partly cloudy 10 - - - -
31/02:00am 18.7 SSE 4 5 1022.2 - 2.6 - Cloudy 10 - - - -
31/01:30am 19.0 S 5 6 1022.4 - 2.6 - Cloudy 10 - - - -
31/01:00am 19.0 S 6 7 1022.6 - 2.6 - Partly cloudy 10 - - - -
31/12:30am 19.7 S 6 8 1023.0 - 2.6 - Cloudy 10 - - - -
31/12:00am 19.7 S 6 8 1023.4 - 2.6 - Cloudy 10 - - - -
 
Date/Time
EST
Temp
°C
Wind Pressure Rain since
9am
mm
Weather Cloud Vis
km
Sea
Height
m
Swell
Dir  Spd
kts
Gust
kts
hPa Trend Height
m
Period
s
Dir
30/11:30pm 19.5 S 5 7 1023.5 - 2.6 - Partly cloudy 10 - - - -
30/11:00pm 20.3 SSE 7 9 1023.4 - 2.6 - Cloudy 10 - - - -
30/10:30pm 20.1 SSE 5 7 1023.4 - 2.6 - Cloudy 10 - - - -
30/10:00pm 20.2 SE 8 12 1023.5 - 2.6 - Cloudy 10 - - - -
30/09:30pm 20.2 SSE 7 10 1023.5 - 2.6 - Partly cloudy 10 - - - -
30/09:00pm 20.5 ESE 7 12 1023.7 - 2.6 - Cloudy 10 - - - -
30/08:30pm 20.8 ESE 8 11 1023.6 - 2.6 - Partly cloudy 10 - - - -
30/08:00pm 20.6 ESE 6 8 1023.5 - 2.6 - Partly cloudy 10 - - - -
30/07:30pm 20.4 ESE 6 7 1023.1 - 2.6 - Cloudy 10 - - - -
30/07:00pm 20.4 ESE 7 9 1022.7 - 2.6 - Cloudy 10 - - - -
30/06:30pm 20.3 SE 7 10 1022.5 - 2.6 - Partly cloudy 10 - - - -
30/06:00pm 20.9 SE 8 10 1022.2 - 2.6 - Mostly cloudy 10 - - - -
30/05:30pm 21.7 ESE 10 15 1021.9 - 2.6 - Cloudy 10 - - - -
30/05:00pm 22.2 ESE 12 16 1021.7 - 2.6 - Cloudy 10 - - - -
30/04:30pm 22.7 SE 13 17 1021.3 - 2.6 - Cloudy 10 - - - -
30/04:00pm 23.1 SE 15 18 1021.0 - 2.6 - Cloudy 10 - - - -
30/03:30pm 23.5 SE 14 19 1021.1 - 2.6 - Cloudy 10 - - - -
30/03:00pm 23.5 ESE 13 19 1021.1 - 2.6 - Mostly cloudy 10 - - - -
30/02:30pm 24.6 ESE 13 19 1021.4 - 2.6 - Partly cloudy 10 - - - -
30/02:00pm 23.6 SE 13 18 1021.8 - 2.6 - Partly cloudy 10 - - - -
30/01:30pm 22.9 ESE 12 17 1022.1 - 2.6 - Partly cloudy 10 - - - -
30/01:00pm 22.7 ESE 9 15 1022.5 - 2.6 - Partly cloudy 10 - - - -
30/12:49pm 21.7 ESE 7 12 1022.7 - 2.6 - Partly cloudy 10 - - - -
30/12:46pm 21.8 SE 7 12 1022.8 - 2.6 - Partly cloudy 10 - - - -
30/12:39pm 20.7 ESE 7 12 1022.9 - 2.6 - Partly cloudy 10 - - - -
30/12:36pm 20.2 ESE 8 12 1023.0 - 2.6 - Partly cloudy 6 - - - -
30/12:30pm 19.9 ESE 10 16 1023.2 - 2.6 - Partly cloudy 4 - - - -
30/12:19pm 20.4 E 12 16 1023.4 - 2.0 - Partly cloudy 4 - - - -
30/12:15pm 20.9 ESE 12 17 1023.4 - 2.0 - Partly cloudy 6 - - - -
30/12:00pm 23.0 ESE 14 19 1023.3 - 2.0 - Cloudy 10 - - - -
30/11:30am 23.7 ESE 13 19 1023.4 - 2.0 - Partly cloudy 10 - - - -
30/11:00am 22.6 ESE 12 19 1023.8 - 2.0 - Partly cloudy 10 - - - -
30/10:30am 23.3 ESE 7 11 1024.0 - 2.0 - Partly cloudy 10 - - - -
30/10:06am 21.3 ENE 5 8 1024.4 - 2.0 - Partly cloudy 10 - - - -
30/10:00am 20.8 E 5 8 1024.5 - 2.0 - Partly cloudy 10 - - - -
30/09:50am 20.5 E 6 9 1024.5 - 2.0 - Partly cloudy 6 - - - -
30/09:31am 20.5 E 6 8 1024.4 - 1.8 - Partly cloudy 10 - - - -
30/09:30am 20.5 E 6 8 1024.4 - 1.8 - Partly cloudy 10 - - - -
30/09:09am 20.3 E 9 13 1024.4 - 0.2 - Partly cloudy 6 - - - -
30/09:00am 20.6 SE 9 14 1024.1 - 1.2 - Cloudy 10 - - - -
30/08:30am 20.3 S 5 7 1023.8 - 1.2 - Partly cloudy 10 - - - -
30/08:00am 19.6 S 4 5 1023.3 - 1.2 - Cloudy 10 - - - -
30/07:30am 18.8 S 5 7 1022.9 - 1.2 - Cloudy 10 - - - -
30/07:00am 18.8 ESE 5 7 1022.6 - 1.2 - Partly cloudy 10 - - - -
30/06:41am 18.6 E 3 5 1022.5 - 1.2 - Partly cloudy 10 - - - -
30/06:30am 18.5 ESE 6 10 1022.4 - 1.2 - Partly cloudy 5 - - - -
30/06:22am 18.3 SE 7 10 1022.3 - 1.0 - Partly cloudy 5 - - - -
30/06:00am 17.6 SSE 3 4 1022.0 - 0.4 - Partly cloudy 10 - - - -
30/05:30am 17.8 SE 5 6 1021.8 - 0.4 - Partly cloudy 10 - - - -
30/05:00am 18.1 SE 7 10 1021.5 - 0.4 - Partly cloudy 10 - - - -
30/04:30am 18.7 ESE 9 12 1021.2 - 0.4 - Partly cloudy 10 - - - -
30/04:00am 18.3 S 6 8 1020.9 - 0.0 - Partly cloudy 10 - - - -
30/03:30am 18.2 SSE 7 9 1020.8 - 0.0 - Partly cloudy 10 - - - -
30/03:00am 18.2 SE 6 9 1021.0 - 0.0 - Cloudy 10 - - - -
30/02:30am 18.3 SSE 6 9 1021.1 - 0.0 - Partly cloudy 10 - - - -
30/02:00am 18.4 S 6 9 1021.3 - 0.0 - Cloudy 10 - - - -
30/01:30am 18.2 SSE 6 9 1021.4 - 0.0 - Partly cloudy 10 - - - -
30/01:00am 18.0 S 6 9 1021.7 - 0.0 - Partly cloudy 10 - - - -
30/12:30am 18.3 SSE 6 7 1021.7 - 0.0 - Partly cloudy 10 - - - -
30/12:00am 18.6 SSE 6 8 1021.8 - 0.0 - Mostly cloudy 10 - - - -
 
Date/Time
EST
Temp
°C
Wind Pressure Rain since
9am
mm
Weather Cloud Vis
km
Sea
Height
m
Swell
Dir  Spd
kts
Gust
kts
hPa Trend Height
m
Period
s
Dir
29/11:30pm 19.0 SSE 7 12 1021.8 - 0.0 - Cloudy 10 - - - -
29/11:00pm 18.2 S 5 7 1022.1 - 0.0 - Partly cloudy 10 - - - -
29/10:30pm 18.6 SSE 6 7 1022.0 - 0.0 - Partly cloudy 10 - - - -
29/10:00pm 18.6 S 7 9 1022.2 - 0.0 - Partly cloudy 10 - - - -
29/09:30pm 18.4 SSE 7 9 1022.5 - 0.0 - Partly cloudy 10 - - - -
29/09:00pm 18.2 SSE 7 9 1022.3 - 0.0 - Partly cloudy 10 - - - -
29/08:30pm 18.6 SSE 8 10 1022.5 - 0.0 - - 10 - - - -
29/08:00pm 18.7 SE 8 10 1022.4 - 0.0 - - 10 - - - -
29/07:30pm 19.4 SE 9 13 1022.2 - 0.0 - Partly cloudy 10 - - - -
29/07:00pm 20.0 SE 11 14 1022.0 - 0.0 - Cloudy 10 - - - -
29/06:30pm 20.1 ESE 11 15 1021.7 - 0.0 - Partly cloudy 10 - - - -
29/06:00pm 20.3 ESE 11 17 1021.6 - 0.0 - Mostly cloudy 10 - - - -
29/05:30pm 21.0 ESE 13 19 1021.3 - 0.0 - Partly cloudy 10 - - - -
29/05:00pm 21.7 ESE 13 18 1021.3 - 0.0 - Cloudy 10 - - - -
29/04:30pm 22.1 ESE 13 18 1021.3 - 0.0 - Cloudy 10 - - - -
29/04:00pm 23.2 ESE 13 17 1021.2 - 0.0 - Partly cloudy 10 - - - -
29/03:30pm 23.6 ESE 13 18 1020.9 - 0.0 - - 10 - - - -
29/03:00pm 23.9 SE 14 21 1020.9 - 0.0 - Mostly clear 10 - - - -
29/02:30pm 24.1 ESE 13 19 1020.7 - 0.0 - - 10 - - - -
29/02:00pm 23.1 ESE 13 19 1021.0 - 0.0 - Partly cloudy 10 - - - -
29/01:30pm 23.3 ESE 13 18 1021.2 - 0.0 - Partly cloudy 10 - - - -
29/01:00pm 24.4 SE 14 18 1021.6 - 0.0 - Partly cloudy 10 - - - -
29/12:30pm 24.8 SE 15 20 1021.9 - 0.0 - Partly cloudy 10 - - - -
29/12:00pm 25.2 SE 13 19 1022.2 - 0.0 - Partly cloudy 10 - - - -
29/11:30am 24.3 SE 15 19 1022.7 - 0.0 - Partly cloudy 10 - - - -
29/11:00am 24.3 ESE 14 20 1023.0 - 0.0 - - 10 - - - -
29/10:30am 23.9 ESE 14 19 1023.1 - 0.0 - - 10 - - - -
29/10:00am 23.2 ESE 13 18 1023.2 - 0.0 - - 10 - - - -
29/09:30am 23.0 E 8 13 1023.2 - 0.0 - Partly cloudy 10 - - - -
29/09:00am 20.5 ESE 5 7 1023.3 - 0.0 - - 10 - - - -
29/08:30am 18.7 SSE 1 4 1023.3 - 0.0 - Partly cloudy 10 - - - -
29/08:00am 15.8 CALM 0 0 1023.1 - 0.0 - Cloudy 10 - - - -
29/07:30am 13.9 CALM 0 0 1022.7 - 0.0 - Partly cloudy 10 - - - -
29/07:00am 11.4 CALM 0 0 1022.3 - 0.0 - Partly cloudy 10 - - - -
29/06:30am 9.6 CALM 0 3 1022.0 - 0.0 - Partly cloudy 10 - - - -
29/06:00am 10.3 SSW 1 4 1021.6 - 0.0 - - 10 - - - -
29/05:30am 10.3 S 1 4 1021.3 - 0.0 - Partly cloudy 10 - - - -
29/05:00am 10.7 SW 3 4 1021.3 - 0.0 - Partly cloudy 10 - - - -
29/04:30am 10.9 CALM 0 0 1021.3 - 0.0 - Partly cloudy 10 - - - -
29/04:00am 10.7 SW 3 4 1021.1 - 0.0 - Partly cloudy 10 - - - -
29/03:30am 10.7 W 3 4 1021.0 - 0.0 - Partly cloudy 10 - - - -
29/03:00am 10.5 CALM 0 0 1021.0 - 0.0 - Mostly clear 10 - - - -
29/02:30am 11.0 SW 2 4 1021.2 - 0.0 - - 10 - - - -
29/02:00am 11.0 SSW 3 5 1021.2 - 0.0 - - 10 - - - -
29/01:30am 11.5 SW 4 6 1021.4 - 0.0 - Partly cloudy 10 - - - -
29/01:00am 11.4 SSW 5 6 1021.7 - 0.0 - Partly cloudy 10 - - - -
29/12:30am 11.7 SW 7 8 1021.9 - 0.0 - - 10 - - - -
29/12:00am 11.6 SSW 7 8 1021.8 - 0.0 - - 10 - - - -
 
Date/Time
EST
Temp
°C
Wind Pressure Rain since
9am
mm
Weather Cloud Vis
km
Sea
Height
m
Swell
Dir  Spd
kts
Gust
kts
hPa Trend Height
m
Period
s
Dir
28/11:30pm 11.8 SSW 5 7 1021.9 - 0.0 - Partly cloudy 10 - - - -
28/11:00pm 11.9 SSW 7 8 1021.8 - 0.0 - - 10 - - - -
28/10:30pm 12.8 S 6 7 1021.8 - 0.0 - - 10 - - - -
28/10:00pm 13.4 S 7 9 1021.8 - 0.0 - - 10 - - - -
28/09:30pm 12.7 SSW 7 8 1022.1 - 0.0 - - 10 - - - -
28/09:00pm 12.4 SSW 5 5 1022.1 - 0.0 - - 10 - - - -
28/08:30pm 12.8 SSW 5 6 1022.2 - 0.0 - - 10 - - - -
28/08:00pm 14.1 SSW 4 5 1022.0 - 0.0 - - 10 - - - -
28/07:30pm 14.4 SSW 4 5 1021.6 - 0.0 - - 10 - - - -
28/07:00pm 15.4 SE 3 5 1021.4 - 0.0 - - 10 - - - -
28/06:30pm 16.0 ESE 6 7 1021.0 - 0.0 - - 10 - - - -
28/06:00pm 16.9 SE 7 11 1020.7 - 0.0 - - 10 - - - -
28/05:30pm 18.7 ESE 9 12 1020.6 - 0.0 - - 10 - - - -
28/05:00pm 19.9 ESE 9 13 1020.4 - 0.0 - - 10 - - - -
28/04:30pm 20.4 ESE 11 16 1020.3 - 0.0 - - 10 - - - -
28/04:00pm 21.1 E 11 16 1020.0 - 0.0 - - 10 - - - -
28/03:30pm 21.2 ESE 12 15 1020.0 - 0.0 - - 10 - - - -
28/03:00pm 21.6 E 12 18 1020.0 - 0.0 - - 10 - - - -
28/02:30pm 21.8 E 13 19 1020.3 - 0.0 - - 10 - - - -

Other Formats:

Comma delimited format used in spreadsheet applications
http://www.bom.gov.au/fwo/IDQ60701/IDQ60701.94365.axf

JavaScript Object Notation format (JSON) in row-major order
http://www.bom.gov.au/fwo/IDQ60701/IDQ60701.94365.json